Broussard, Louisiana
Current Conditions -  °F | °C
As of 10:53 PM on Wednesday 22 Oct 2014 (Local Time) from KLFT Reporting Station
Clear Clear  
Wind Chill: 61°   Ceiling: Unl
Heat Index: 61°   Visibility: 10mi
Dew Point: 54°   Wind: 7mph
Humidity: 78%   Direction: 20°NNE
Pressure: 30.09"   Gusts: NA
Location:  30.15°N, 91.96°W
Report Text: KLFT 230353Z 02006KT 10SM CLR 16/12 A3009 RMK AO2 SLP190 T01610122
Loading
Personal Weather Stations






























Interactive Weather Map
Tropical Storm Tracking
New forecast layout! Learn more

10-Day Weather Forecast

Advertisements
Track Severe Weather on mobile